createdAt,value
2022-11-20T00:02:17.107Z,2.77
2022-11-20T00:04:50.312Z,2.90
2022-11-20T00:07:23.318Z,2.80
2022-11-20T00:09:56.390Z,3.13
2022-11-20T00:12:29.313Z,3.10
2022-11-20T00:15:02.401Z,3.07
2022-11-20T00:17:35.353Z,3.17
2022-11-20T00:20:08.663Z,2.77
2022-11-20T00:22:41.545Z,3.03
2022-11-20T00:25:14.806Z,3.37
2022-11-20T00:27:47.725Z,2.87
2022-11-20T00:30:20.693Z,2.73
2022-11-20T00:32:53.566Z,2.73
2022-11-20T00:35:26.706Z,2.70
2022-11-20T00:37:59.579Z,2.53
2022-11-20T00:40:32.605Z,2.87
2022-11-20T00:43:05.646Z,2.73
2022-11-20T00:45:38.656Z,2.83
2022-11-20T00:48:11.611Z,2.80
2022-11-20T00:50:44.594Z,2.60
2022-11-20T00:53:17.558Z,2.70
2022-11-20T00:55:59.772Z,2.70
2022-11-20T00:58:37.152Z,2.63
2022-11-20T01:01:16.030Z,2.57
2022-11-20T01:03:50.476Z,2.70
2022-11-20T01:06:28.349Z,2.97
2022-11-20T01:09:02.849Z,2.63
2022-11-20T01:11:37.297Z,2.80
2022-11-20T01:14:14.058Z,2.90
2022-11-20T01:16:49.098Z,3.17
2022-11-20T01:19:24.034Z,2.50
2022-11-20T01:21:57.357Z,3.07
2022-11-20T01:24:30.271Z,2.67
2022-11-20T01:27:03.270Z,2.80
2022-11-20T01:29:36.154Z,3.10
2022-11-20T01:32:09.148Z,2.77
2022-11-20T01:34:42.019Z,2.43
2022-11-20T01:37:15.042Z,2.93
2022-11-20T01:39:47.994Z,2.83
2022-11-20T01:42:39.342Z,3.23
2022-11-20T01:45:31.012Z,3.00
2022-11-20T01:48:03.938Z,2.90
2022-11-20T01:50:37.051Z,3.03
2022-11-20T01:53:12.670Z,2.73
2022-11-20T01:55:54.099Z,2.93
2022-11-20T01:58:30.289Z,2.70
2022-11-20T02:01:04.234Z,3.17
2022-11-20T02:03:37.283Z,3.40
2022-11-20T02:06:20.342Z,2.93
2022-11-20T02:08:53.697Z,2.40
2022-11-20T02:11:26.749Z,3.50
2022-11-20T02:14:00.485Z,3.30
2022-11-20T02:16:38.257Z,3.17
2022-11-20T02:19:31.613Z,3.07
2022-11-20T02:22:12.475Z,2.73
2022-11-20T02:24:45.499Z,2.90
2022-11-20T02:27:18.754Z,2.27
2022-11-20T02:29:53.644Z,2.80
2022-11-20T02:32:30.959Z,2.40
2022-11-20T02:35:10.948Z,2.40
2022-11-20T02:37:43.948Z,2.23
2022-11-20T02:40:16.988Z,2.50
2022-11-20T02:42:53.240Z,1.80
2022-11-20T02:45:26.468Z,1.57
2022-11-20T02:47:59.375Z,2.20
2022-11-20T02:50:32.516Z,1.87
2022-11-20T02:53:05.401Z,2.00
2022-11-20T02:55:38.549Z,2.23
2022-11-20T02:58:11.683Z,1.70
2022-11-20T03:00:44.747Z,1.97
2022-11-20T03:03:17.654Z,2.43
2022-11-20T03:05:50.647Z,2.50
2022-11-20T03:08:23.552Z,2.27
2022-11-20T03:10:56.483Z,2.43
2022-11-20T03:13:29.489Z,3.03
2022-11-20T03:16:28.747Z,2.73
2022-11-20T03:19:01.793Z,2.57
2022-11-20T03:21:35.128Z,3.07
2022-11-20T03:24:08.260Z,2.67
2022-11-20T03:26:41.453Z,4.65
2022-11-20T03:29:14.476Z,4.20
2022-11-20T03:31:47.738Z,4.03
2022-11-20T03:34:20.696Z,4.07
2022-11-20T03:36:53.601Z,4.10
2022-11-20T03:39:27.315Z,4.87
2022-11-20T03:42:00.191Z,4.43
2022-11-20T03:44:33.381Z,4.10
2022-11-20T03:47:06.279Z,4.60
2022-11-20T03:49:39.318Z,4.40
2022-11-20T03:52:12.206Z,4.87
2022-11-20T03:54:45.154Z,4.70
2022-11-20T03:57:18.151Z,4.20
2022-11-20T03:59:51.182Z,4.20
2022-11-20T04:02:24.150Z,3.47
2022-11-20T04:04:57.261Z,4.60
2022-11-20T04:07:30.176Z,4.30
2022-11-20T04:10:03.240Z,3.80
2022-11-20T04:12:36.110Z,4.90
2022-11-20T04:15:09.333Z,4.50
2022-11-20T04:17:42.289Z,4.80
2022-11-20T04:20:15.620Z,4.63
2022-11-20T04:22:48.497Z,4.40
2022-11-20T04:25:21.673Z,4.68
2022-11-20T04:27:54.543Z,4.77
2022-11-20T04:30:27.540Z,4.67
2022-11-20T04:33:00.454Z,4.93
2022-11-20T04:35:36.000Z,4.43
2022-11-20T04:38:08.951Z,5.20
2022-11-20T04:40:42.048Z,4.43
2022-11-20T04:43:14.964Z,5.07
2022-11-20T04:45:52.471Z,4.50
2022-11-20T04:48:26.267Z,4.73
2022-11-20T04:50:59.153Z,5.33
2022-11-20T04:53:32.078Z,4.80
2022-11-20T04:56:06.557Z,4.27
2022-11-20T04:58:39.943Z,4.23
2022-11-20T05:01:14.567Z,4.60
2022-11-20T05:03:48.009Z,4.60
2022-11-20T05:06:22.245Z,5.10
2022-11-20T05:08:55.140Z,4.20
2022-11-20T05:11:29.924Z,4.57
2022-11-20T05:14:02.825Z,4.63
2022-11-20T05:16:37.003Z,3.90
2022-11-20T05:19:09.977Z,4.17
2022-11-20T05:21:42.925Z,3.53
2022-11-20T05:24:15.819Z,3.90
2022-11-20T05:26:48.784Z,3.30
2022-11-20T05:29:21.918Z,3.40
2022-11-20T05:31:54.988Z,3.70
2022-11-20T05:34:27.954Z,3.90
2022-11-20T05:37:01.045Z,4.27
2022-11-20T05:39:34.021Z,4.70
2022-11-20T05:42:25.743Z,3.93
2022-11-20T05:44:59.383Z,3.80
2022-11-20T05:47:35.943Z,3.17
2022-11-20T05:50:09.040Z,2.63
2022-11-20T05:52:42.146Z,2.70
2022-11-20T05:55:15.046Z,3.10
2022-11-20T05:57:48.022Z,3.13
2022-11-20T06:00:21.087Z,2.73
2022-11-20T06:02:54.036Z,2.93
2022-11-20T06:05:26.983Z,2.50
2022-11-20T06:08:02.274Z,2.13
2022-11-20T06:10:35.363Z,2.60
2022-11-20T06:13:08.270Z,2.60
2022-11-20T06:15:41.255Z,3.13
2022-11-20T06:18:14.113Z,2.77
2022-11-20T06:20:47.618Z,3.23
2022-11-20T06:23:20.514Z,3.20
2022-11-20T06:25:53.542Z,3.00
2022-11-20T06:28:26.547Z,2.80
2022-11-20T06:31:00.509Z,2.83
2022-11-20T06:33:33.446Z,2.97
2022-11-20T06:36:10.578Z,2.50
2022-11-20T06:38:44.262Z,2.60
2022-11-20T06:41:18.799Z,2.60
2022-11-20T06:43:51.854Z,2.67
2022-11-20T06:46:24.909Z,2.90
2022-11-20T06:48:59.079Z,2.63
2022-11-20T06:51:32.034Z,3.20
2022-11-20T06:54:05.016Z,3.17
2022-11-20T06:56:37.939Z,3.10
2022-11-20T06:59:10.918Z,3.23
2022-11-20T07:01:44.014Z,3.60
2022-11-20T07:04:16.935Z,3.87
2022-11-20T07:06:49.955Z,5.15
2022-11-20T07:09:23.192Z,3.80
2022-11-20T07:11:56.493Z,4.03
2022-11-20T07:14:29.793Z,3.83
2022-11-20T07:17:02.670Z,3.40
2022-11-20T07:19:35.660Z,3.50
2022-11-20T07:22:08.569Z,3.50
2022-11-20T07:24:45.847Z,3.87
2022-11-20T07:27:19.099Z,3.60
2022-11-20T07:29:52.004Z,3.20
2022-11-20T07:32:25.289Z,3.23
2022-11-20T07:34:58.320Z,2.97
2022-11-20T07:37:31.255Z,3.30
2022-11-20T07:40:04.499Z,2.93
2022-11-20T07:42:37.497Z,3.37
2022-11-20T07:45:10.632Z,3.40
2022-11-20T07:47:43.727Z,2.70
2022-11-20T07:50:17.095Z,2.73
2022-11-20T07:52:50.007Z,2.43
2022-11-20T07:55:22.884Z,2.60
2022-11-20T07:57:57.143Z,3.00
2022-11-20T08:00:30.113Z,2.70
2022-11-20T08:03:05.458Z,2.90
2022-11-20T08:05:38.438Z,2.80
2022-11-20T08:08:11.386Z,3.20
2022-11-20T08:10:44.255Z,3.50
2022-11-20T08:13:55.502Z,3.00
2022-11-20T08:16:28.927Z,2.93
2022-11-20T08:19:02.011Z,2.97
2022-11-20T08:21:38.234Z,3.50
2022-11-20T08:24:11.956Z,3.30
2022-11-20T08:26:44.891Z,2.90
2022-11-20T08:29:17.968Z,2.90
2022-11-20T08:31:50.872Z,2.80
2022-11-20T08:34:23.763Z,3.43
2022-11-20T08:36:56.713Z,2.67
2022-11-20T08:39:30.778Z,2.97
2022-11-20T08:42:03.693Z,3.13
2022-11-20T08:44:36.710Z,3.07
2022-11-20T08:47:09.592Z,2.90
2022-11-20T08:49:42.611Z,2.53
2022-11-20T08:52:15.517Z,2.73
2022-11-20T08:54:48.556Z,2.30
2022-11-20T08:57:21.800Z,2.57
2022-11-20T09:00:10.440Z,2.17
2022-11-20T09:02:43.595Z,2.50
2022-11-20T09:05:16.646Z,2.10
2022-11-20T09:07:49.515Z,1.80
2022-11-20T09:10:24.685Z,1.87
2022-11-20T09:12:58.006Z,2.30
2022-11-20T09:15:30.928Z,2.23
2022-11-20T09:18:05.637Z,1.87
2022-11-20T09:20:38.683Z,1.80
2022-11-20T09:23:11.595Z,1.90
2022-11-20T09:25:44.799Z,2.43
2022-11-20T09:28:19.279Z,2.20
2022-11-20T09:30:56.062Z,1.90
2022-11-20T09:33:32.545Z,2.00
2022-11-20T09:36:06.337Z,2.05
2022-11-20T09:38:39.522Z,1.90
2022-11-20T09:41:25.034Z,2.07
2022-11-20T09:44:16.749Z,2.07
2022-11-20T09:46:49.708Z,2.10
2022-11-20T09:49:42.867Z,2.10
2022-11-20T09:52:39.303Z,2.33
2022-11-20T09:55:13.863Z,2.10
2022-11-20T09:57:48.662Z,1.70
2022-11-20T10:00:22.875Z,2.00
2022-11-20T10:02:58.925Z,1.90
2022-11-20T10:05:35.595Z,2.50
2022-11-20T10:08:32.835Z,2.40
2022-11-20T10:11:08.629Z,2.07
2022-11-20T10:13:44.580Z,2.17
2022-11-20T10:16:28.124Z,2.07
2022-11-20T10:19:11.408Z,1.80
2022-11-20T10:21:50.432Z,2.27
2022-11-20T10:24:24.840Z,2.07
2022-11-20T10:27:16.132Z,2.00
2022-11-20T10:29:51.748Z,1.83
2022-11-20T10:32:29.957Z,2.60
2022-11-20T10:35:05.771Z,1.93
2022-11-20T10:37:42.708Z,1.90
2022-11-20T10:40:18.827Z,2.20
2022-11-20T10:42:55.861Z,1.60
2022-11-20T10:45:32.437Z,1.70
2022-11-20T10:48:08.397Z,2.00
2022-11-20T10:50:47.899Z,1.40
2022-11-20T10:53:29.796Z,2.35
2022-11-20T10:56:06.883Z,1.70
2022-11-20T10:58:58.745Z,1.40
2022-11-20T11:01:31.805Z,1.40
2022-11-20T11:04:04.869Z,1.70
2022-11-20T11:06:40.057Z,1.27
2022-11-20T11:09:22.887Z,1.10
2022-11-20T11:11:56.128Z,1.10
2022-11-20T11:14:29.068Z,1.37
2022-11-20T11:17:01.989Z,1.20
2022-11-20T11:19:34.979Z,1.00
2022-11-20T11:22:12.184Z,1.30
2022-11-20T11:24:53.383Z,1.20
2022-11-20T11:27:26.542Z,1.53
2022-11-20T11:30:03.895Z,1.23
2022-11-20T11:32:36.816Z,1.10
2022-11-20T11:35:29.419Z,1.03
2022-11-20T11:38:06.597Z,1.00
2022-11-20T11:40:39.848Z,1.30
2022-11-20T11:43:39.892Z,1.20
2022-11-20T11:46:33.098Z,1.30
2022-11-20T11:49:12.628Z,0.90
2022-11-20T11:52:04.417Z,0.90
2022-11-20T11:54:44.720Z,1.20
2022-11-20T11:57:22.278Z,1.07
2022-11-20T12:00:03.146Z,1.10
2022-11-20T12:02:46.376Z,1.10
2022-11-20T12:05:19.514Z,0.90
2022-11-20T12:08:00.998Z,1.10
2022-11-20T12:10:35.675Z,0.90
2022-11-20T12:13:32.409Z,0.83
2022-11-20T12:16:05.818Z,0.97
2022-11-20T12:18:38.762Z,1.00
2022-11-20T12:21:22.368Z,1.00
2022-11-20T12:24:00.600Z,0.80
2022-11-20T12:26:52.106Z,0.87
2022-11-20T12:29:30.376Z,1.07
2022-11-20T12:32:22.183Z,0.83
2022-11-20T12:34:55.163Z,0.80
2022-11-20T12:37:34.842Z,1.03
2022-11-20T12:40:26.586Z,1.07
2022-11-20T12:43:21.983Z,0.87
2022-11-20T12:46:02.547Z,0.97
2022-11-20T12:48:46.021Z,1.03
2022-11-20T12:51:22.483Z,1.03
2022-11-20T12:54:14.179Z,1.10
2022-11-20T12:57:05.670Z,0.93
2022-11-20T12:59:57.462Z,0.73
2022-11-20T13:02:42.956Z,1.00
2022-11-20T13:05:34.639Z,0.90
2022-11-20T13:08:13.255Z,0.93
2022-11-20T13:10:49.280Z,1.17
2022-11-20T13:13:25.325Z,1.10
2022-11-20T13:16:17.838Z,0.90
2022-11-20T13:18:50.792Z,1.03
2022-11-20T13:21:36.044Z,0.83
2022-11-20T13:24:24.220Z,1.05
2022-11-20T13:27:20.027Z,1.07
2022-11-20T13:30:04.258Z,1.00
2022-11-20T13:32:37.230Z,0.90
2022-11-20T13:35:10.482Z,1.23
2022-11-20T13:37:43.398Z,1.10
2022-11-20T13:40:22.152Z,0.90
2022-11-20T13:43:13.884Z,0.90
2022-11-20T13:45:56.214Z,1.00
2022-11-20T13:48:55.700Z,0.97
2022-11-20T13:51:31.645Z,0.70
2022-11-20T13:54:23.611Z,0.80
2022-11-20T13:56:56.655Z,0.80
2022-11-20T13:59:39.646Z,1.20
2022-11-20T14:02:14.611Z,1.00
2022-11-20T14:04:49.475Z,0.70
2022-11-20T14:07:25.787Z,0.90
2022-11-20T14:09:59.139Z,1.00
2022-11-20T14:12:33.623Z,0.70
2022-11-20T14:15:06.656Z,0.87
2022-11-20T14:17:39.628Z,0.80
2022-11-20T14:20:19.653Z,0.90
2022-11-20T14:22:53.183Z,1.10
2022-11-20T14:25:31.871Z,0.80
2022-11-20T14:28:05.330Z,0.83
2022-11-20T14:30:45.112Z,0.97
2022-11-20T14:33:18.695Z,1.23
2022-11-20T14:35:53.274Z,1.10
2022-11-20T14:38:28.407Z,0.70
2022-11-20T14:41:08.392Z,1.00
2022-11-20T14:43:46.766Z,0.70
2022-11-20T14:46:20.037Z,0.60
2022-11-20T14:48:55.541Z,0.90
2022-11-20T14:51:31.367Z,0.97
2022-11-20T14:54:11.870Z,0.63
2022-11-20T14:56:55.994Z,1.07
2022-11-20T14:59:30.630Z,0.73
2022-11-20T15:02:06.396Z,1.00
2022-11-20T15:04:49.450Z,1.63
2022-11-20T15:07:46.353Z,1.17
2022-11-20T15:10:24.360Z,0.90
2022-11-20T15:13:09.749Z,0.70
2022-11-20T15:15:49.817Z,0.73
2022-11-20T15:18:24.774Z,0.70
2022-11-20T15:20:58.229Z,1.30
2022-11-20T15:23:31.254Z,0.73
2022-11-20T15:26:06.469Z,0.97
2022-11-20T15:28:48.488Z,0.80
2022-11-20T15:31:23.219Z,0.97
2022-11-20T15:33:56.168Z,1.00
2022-11-20T15:36:29.048Z,0.70
2022-11-20T15:39:03.450Z,0.73
2022-11-20T15:41:37.002Z,1.03
2022-11-20T15:44:10.032Z,0.87
2022-11-20T15:46:45.328Z,1.35
2022-11-20T15:49:19.883Z,0.70
2022-11-20T15:51:54.133Z,0.80
2022-11-20T15:54:27.384Z,0.50
2022-11-20T15:57:01.679Z,0.87
2022-11-20T15:59:35.325Z,0.70
2022-11-20T16:02:19.162Z,0.80
2022-11-20T16:04:52.476Z,0.80
2022-11-20T16:07:25.563Z,0.77
2022-11-20T16:09:58.558Z,0.80
2022-11-20T16:12:50.157Z,0.80
2022-11-20T16:15:41.673Z,0.70
2022-11-20T16:18:16.243Z,1.00
2022-11-20T16:20:50.749Z,0.77
2022-11-20T16:23:23.888Z,0.70
2022-11-20T16:25:56.812Z,0.70
2022-11-20T16:28:29.727Z,0.70
2022-11-20T16:31:09.559Z,0.50
2022-11-20T16:33:42.642Z,0.67
2022-11-20T16:36:16.352Z,0.47
2022-11-20T16:38:53.201Z,0.50
2022-11-20T16:41:27.073Z,0.50
2022-11-20T16:44:01.267Z,0.60
2022-11-20T16:46:34.262Z,0.60
2022-11-20T16:49:18.773Z,0.77
2022-11-20T16:51:55.996Z,0.80
2022-11-20T16:54:28.986Z,0.90
2022-11-20T16:57:02.073Z,1.00
2022-11-20T16:59:35.052Z,1.20
2022-11-20T17:02:07.992Z,0.90
2022-11-20T17:04:41.534Z,0.70
2022-11-20T17:07:14.550Z,0.60
2022-11-20T17:09:47.545Z,0.50
2022-11-20T17:12:20.449Z,0.40
2022-11-20T17:14:53.370Z,0.40
2022-11-20T17:17:26.328Z,0.40
2022-11-20T17:19:59.271Z,0.53
2022-11-20T17:22:32.492Z,0.33
2022-11-20T17:25:05.788Z,0.40
2022-11-20T17:27:38.694Z,0.40
2022-11-20T17:30:11.748Z,0.40
2022-11-20T17:32:46.905Z,0.50
2022-11-20T17:35:19.835Z,0.70
2022-11-20T17:37:52.874Z,0.60
2022-11-20T17:40:27.654Z,0.60
2022-11-20T17:43:00.920Z,0.50
2022-11-20T17:45:36.320Z,0.40
2022-11-20T17:48:09.430Z,0.80
2022-11-20T17:50:42.466Z,0.70
2022-11-20T17:53:15.371Z,0.80
2022-11-20T17:56:14.347Z,0.80
2022-11-20T17:58:47.383Z,0.90
2022-11-20T18:01:20.929Z,0.98
2022-11-20T18:03:54.161Z,0.87
2022-11-20T18:06:28.272Z,1.00
2022-11-20T18:09:02.520Z,0.80
2022-11-20T18:11:37.179Z,0.80
2022-11-20T18:14:31.739Z,1.10
2022-11-20T18:17:06.239Z,0.80
2022-11-20T18:19:48.045Z,1.10
2022-11-20T18:22:33.677Z,1.10
2022-11-20T18:25:07.016Z,1.40
2022-11-20T18:27:40.073Z,0.83
2022-11-20T18:30:13.458Z,0.90
2022-11-20T18:32:46.813Z,1.10
2022-11-20T18:35:19.870Z,1.27
2022-11-20T18:37:52.796Z,1.13
2022-11-20T18:40:25.708Z,1.23
2022-11-20T18:43:17.662Z,1.40
2022-11-20T18:45:52.374Z,1.20
2022-11-20T18:48:25.349Z,1.00
2022-11-20T18:51:08.922Z,1.00
2022-11-20T18:53:46.987Z,1.43
2022-11-20T18:56:20.394Z,1.03
2022-11-20T18:58:54.673Z,0.70
2022-11-20T19:01:28.591Z,0.93
2022-11-20T19:04:02.099Z,1.00
2022-11-20T19:06:35.798Z,0.90
2022-11-20T19:09:09.920Z,0.80
2022-11-20T19:11:43.153Z,0.70
2022-11-20T19:14:16.168Z,1.00
2022-11-20T19:16:49.166Z,1.13
2022-11-20T19:19:22.561Z,1.27
2022-11-20T19:21:55.663Z,1.17
2022-11-20T19:24:28.797Z,1.00
2022-11-20T19:27:01.735Z,1.10
2022-11-20T19:29:34.786Z,1.35
2022-11-20T19:32:07.686Z,1.30
2022-11-20T19:34:41.527Z,1.13
2022-11-20T19:37:14.475Z,1.30
2022-11-20T19:39:47.379Z,1.50
2022-11-20T19:42:20.296Z,1.40
2022-11-20T19:44:53.462Z,0.90
2022-11-20T19:47:45.971Z,1.20
2022-11-20T19:50:19.380Z,1.33
2022-11-20T19:52:58.382Z,1.27
2022-11-20T19:55:31.952Z,1.10
2022-11-20T19:58:04.918Z,1.30
2022-11-20T20:00:37.943Z,1.10
2022-11-20T20:03:10.798Z,1.37
2022-11-20T20:05:43.854Z,1.30
2022-11-20T20:08:17.248Z,1.10
2022-11-20T20:10:50.267Z,1.30
2022-11-20T20:13:23.445Z,1.50
2022-11-20T20:15:56.731Z,1.50
2022-11-20T20:18:29.701Z,1.33
2022-11-20T20:21:06.995Z,1.20
2022-11-20T20:23:40.423Z,1.20
2022-11-20T20:26:13.395Z,1.93
2022-11-20T20:28:46.265Z,1.43
2022-11-20T20:31:20.687Z,1.60
2022-11-20T20:33:53.606Z,1.73
2022-11-20T20:36:26.861Z,1.30
2022-11-20T20:39:00.001Z,1.47
2022-11-20T20:41:33.234Z,1.60
2022-11-20T20:44:24.755Z,1.53
2022-11-20T20:46:57.722Z,1.40
2022-11-20T20:49:30.830Z,1.37
2022-11-20T20:52:03.837Z,1.50
2022-11-20T20:54:37.102Z,1.30
2022-11-20T20:57:10.017Z,1.50
2022-11-20T20:59:43.016Z,1.30
2022-11-20T21:02:15.938Z,1.60
2022-11-20T21:04:49.196Z,1.60
2022-11-20T21:07:22.288Z,1.10
2022-11-20T21:09:55.242Z,1.47
2022-11-20T21:12:28.104Z,1.60
2022-11-20T21:15:01.000Z,1.50
2022-11-20T21:17:33.937Z,1.60
2022-11-20T21:20:27.201Z,1.93
2022-11-20T21:23:00.139Z,1.87
2022-11-20T21:25:36.699Z,1.53
2022-11-20T21:28:13.086Z,1.90
2022-11-20T21:30:48.716Z,1.60
2022-11-20T21:33:21.621Z,2.23
2022-11-20T21:35:54.662Z,1.83
2022-11-20T21:38:27.602Z,1.70
2022-11-20T21:41:00.698Z,1.97
2022-11-20T21:43:33.907Z,1.70
2022-11-20T21:46:08.876Z,2.03
2022-11-20T21:48:42.834Z,2.72
2022-11-20T21:51:16.964Z,1.73
2022-11-20T21:53:50.490Z,1.80
2022-11-20T21:56:24.638Z,1.97
2022-11-20T21:58:58.748Z,2.00
2022-11-20T22:01:32.072Z,2.90
2022-11-20T22:04:07.631Z,2.27
2022-11-20T22:06:40.697Z,2.30
2022-11-20T22:09:13.660Z,2.40
2022-11-20T22:11:46.627Z,1.97
2022-11-20T22:14:23.316Z,2.17
2022-11-20T22:16:56.879Z,1.83
2022-11-20T22:19:29.975Z,1.67
2022-11-20T22:22:02.904Z,2.27
2022-11-20T22:24:35.942Z,1.63
2022-11-20T22:27:10.716Z,2.17
2022-11-20T22:29:43.735Z,1.10
2022-11-20T22:32:16.595Z,1.90
2022-11-20T22:34:49.547Z,1.67
2022-11-20T22:37:22.536Z,1.80
2022-11-20T22:39:55.517Z,1.50
2022-11-20T22:42:28.466Z,1.50
2022-11-20T22:45:01.537Z,1.57
2022-11-20T22:47:34.457Z,1.30
2022-11-20T22:50:07.720Z,1.90
2022-11-20T22:52:40.627Z,1.20
2022-11-20T22:55:16.414Z,1.60
2022-11-20T22:57:49.585Z,1.30
2022-11-20T23:00:22.622Z,1.40
2022-11-20T23:02:55.696Z,1.47
2022-11-20T23:05:28.576Z,1.70
2022-11-20T23:08:01.582Z,1.83
2022-11-20T23:10:34.526Z,1.40
2022-11-20T23:13:07.506Z,1.60
2022-11-20T23:15:40.696Z,1.40
2022-11-20T23:18:13.651Z,1.38
2022-11-20T23:20:46.630Z,1.10
2022-11-20T23:23:19.567Z,1.27
2022-11-20T23:25:52.561Z,0.90
2022-11-20T23:28:25.483Z,1.23
2022-11-20T23:30:58.984Z,0.83
2022-11-20T23:33:32.262Z,1.30
2022-11-20T23:36:05.383Z,1.33
2022-11-20T23:38:38.526Z,1.40
2022-11-20T23:41:12.075Z,1.10
2022-11-20T23:43:45.111Z,1.33
2022-11-20T23:46:18.098Z,1.17
2022-11-20T23:48:51.171Z,1.10
2022-11-20T23:51:24.084Z,1.00
2022-11-20T23:54:01.787Z,0.80
2022-11-20T23:56:37.434Z,1.87
2022-11-20T23:59:10.442Z,1.13
